createdAt,value
2023-02-14T00:01:20.588Z,42.88
2023-02-14T00:03:50.925Z,40.50
2023-02-14T00:06:20.734Z,39.30
2023-02-14T00:08:48.097Z,40.72
2023-02-14T00:11:15.402Z,38.58
2023-02-14T00:14:05.463Z,37.60
2023-02-14T00:16:33.338Z,38.35
2023-02-14T00:19:03.666Z,33.47
2023-02-14T00:21:36.306Z,35.45
2023-02-14T00:24:05.980Z,41.30
2023-02-14T00:26:33.473Z,37.13
2023-02-14T00:29:00.904Z,35.80
2023-02-14T00:31:28.489Z,38.28
2023-02-14T00:33:55.916Z,38.17
2023-02-14T00:36:23.453Z,43.22
2023-02-14T00:38:50.920Z,43.15
2023-02-14T00:41:21.330Z,43.53
2023-02-14T00:43:50.681Z,38.55
2023-02-14T00:46:18.942Z,40.45
2023-02-14T00:48:46.793Z,38.25
2023-02-14T00:51:14.605Z,37.55
2023-02-14T00:53:42.278Z,33.63
2023-02-14T00:56:09.600Z,33.20
2023-02-14T00:58:36.966Z,33.72
2023-02-14T01:01:04.595Z,35.60
2023-02-14T01:03:31.985Z,39.03
2023-02-14T01:05:59.312Z,37.38
2023-02-14T01:08:26.789Z,39.88
2023-02-14T01:10:54.286Z,39.75
2023-02-14T01:13:21.883Z,36.10
2023-02-14T01:15:51.646Z,36.13
2023-02-14T01:18:19.958Z,39.85
2023-02-14T01:20:47.955Z,40.13
2023-02-14T01:23:15.384Z,40.33
2023-02-14T01:25:42.688Z,39.95
2023-02-14T01:28:10.037Z,42.10
2023-02-14T01:30:37.486Z,44.42
2023-02-14T01:33:04.910Z,43.13
2023-02-14T01:35:32.265Z,37.88
2023-02-14T01:37:59.580Z,35.30
2023-02-14T01:40:26.955Z,38.40
2023-02-14T01:42:54.275Z,34.35
2023-02-14T01:45:24.814Z,35.80
2023-02-14T01:47:54.791Z,37.05
2023-02-14T01:50:35.081Z,35.03
2023-02-14T01:53:11.326Z,37.17
2023-02-14T01:55:42.655Z,36.58
2023-02-14T01:58:24.292Z,34.08
2023-02-14T02:00:58.128Z,34.20
2023-02-14T02:03:34.544Z,35.00
2023-02-14T02:06:16.360Z,32.45
2023-02-14T02:08:59.424Z,31.20
2023-02-14T02:13:54.441Z,31.83
2023-02-14T02:16:53.205Z,33.30
2023-02-14T02:19:42.180Z,35.60
2023-02-14T02:22:12.526Z,36.92
2023-02-14T02:24:48.879Z,37.75
2023-02-14T02:27:21.547Z,33.47
2023-02-14T02:29:51.948Z,38.75
2023-02-14T02:32:40.544Z,35.67
2023-02-14T02:35:26.502Z,37.40
2023-02-14T02:38:32.968Z,40.08
2023-02-14T02:41:04.921Z,39.55
2023-02-14T02:44:03.610Z,40.17
2023-02-14T02:47:01.440Z,41.45
2023-02-14T02:50:16.878Z,33.78
2023-02-14T02:53:08.527Z,39.40
2023-02-14T02:56:02.786Z,35.80
2023-02-14T02:58:36.439Z,40.42
2023-02-14T03:01:18.085Z,42.15
2023-02-14T03:04:06.883Z,44.22
2023-02-14T03:06:34.596Z,49.33
2023-02-14T03:09:32.671Z,44.47
2023-02-14T03:12:18.486Z,43.70
2023-02-14T03:14:56.252Z,47.25
2023-02-14T03:17:48.753Z,50.72
2023-02-14T03:20:30.626Z,54.85
2023-02-14T03:23:04.840Z,54.67
2023-02-14T03:26:07.143Z,53.65
2023-02-14T03:29:02.270Z,50.60
2023-02-14T03:31:34.975Z,43.72
2023-02-14T03:34:35.473Z,48.55
2023-02-14T03:37:43.322Z,50.03
2023-02-14T03:40:13.693Z,48.22
2023-02-14T03:42:52.171Z,48.30
2023-02-14T03:45:25.667Z,52.42
2023-02-14T03:47:54.994Z,53.80
2023-02-14T03:50:22.323Z,49.90
2023-02-14T03:52:52.149Z,46.85
2023-02-14T03:55:24.497Z,45.85
2023-02-14T03:58:10.138Z,48.15
2023-02-14T04:00:41.100Z,44.33
2023-02-14T04:03:14.416Z,44.35
2023-02-14T04:05:52.310Z,50.22
2023-02-14T04:08:25.550Z,47.38
2023-02-14T04:10:54.083Z,45.88
2023-02-14T04:13:21.887Z,47.75
2023-02-14T04:15:49.279Z,46.78
2023-02-14T04:18:35.080Z,48.08
2023-02-14T04:21:02.756Z,44.95
2023-02-14T04:23:30.178Z,47.50
2023-02-14T04:25:57.545Z,45.97
2023-02-14T04:28:24.895Z,47.72
2023-02-14T04:30:52.332Z,46.67
2023-02-14T04:33:19.727Z,50.13
2023-02-14T04:35:50.416Z,53.08
2023-02-14T04:38:17.750Z,53.10
2023-02-14T04:40:45.044Z,52.88
2023-02-14T04:43:12.402Z,56.25
2023-02-14T04:45:39.732Z,59.08
2023-02-14T04:48:07.194Z,56.50
2023-02-14T04:50:34.553Z,50.97
2023-02-14T04:53:01.960Z,45.85
2023-02-14T04:55:34.555Z,49.40
2023-02-14T04:58:01.870Z,51.03
2023-02-14T05:00:29.220Z,54.97
2023-02-14T05:02:56.633Z,53.80
2023-02-14T05:05:24.044Z,62.55
2023-02-14T05:07:51.408Z,61.00
2023-02-14T05:10:18.906Z,61.95
2023-02-14T05:12:46.329Z,59.65
2023-02-14T05:15:13.602Z,58.97
2023-02-14T05:17:40.946Z,61.38
2023-02-14T05:20:08.958Z,57.63
2023-02-14T05:22:38.344Z,60.42
2023-02-14T05:25:06.263Z,60.55
2023-02-14T05:27:33.677Z,66.65
2023-02-14T05:30:01.064Z,60.17
2023-02-14T05:32:28.438Z,61.53
2023-02-14T05:34:55.777Z,56.88
2023-02-14T05:37:23.297Z,60.67
2023-02-14T05:39:50.700Z,59.67
2023-02-14T05:42:18.053Z,57.63
2023-02-14T05:44:45.444Z,65.90
2023-02-14T05:47:13.278Z,60.35
2023-02-14T05:49:40.681Z,64.82
2023-02-14T05:52:08.066Z,62.90
2023-02-14T05:54:35.690Z,63.33
2023-02-14T05:57:03.124Z,60.90
2023-02-14T05:59:30.465Z,61.15
2023-02-14T06:01:57.924Z,62.67
2023-02-14T06:04:25.397Z,67.00
2023-02-14T06:06:52.818Z,59.15
2023-02-14T06:09:20.158Z,58.35
2023-02-14T06:11:47.851Z,67.75
2023-02-14T06:14:15.279Z,63.00
2023-02-14T06:16:42.649Z,67.47
2023-02-14T06:19:10.103Z,65.35
2023-02-14T06:21:37.628Z,59.13
2023-02-14T06:24:05.236Z,58.58
2023-02-14T06:26:33.461Z,65.97
2023-02-14T06:29:00.761Z,63.47
2023-02-14T06:31:28.373Z,65.90
2023-02-14T06:33:56.174Z,59.92
2023-02-14T06:36:23.971Z,67.57
2023-02-14T06:38:51.549Z,70.20
2023-02-14T06:41:19.086Z,68.05
2023-02-14T06:43:50.766Z,71.82
2023-02-14T06:46:19.273Z,62.55
2023-02-14T06:48:46.675Z,65.85
2023-02-14T06:51:14.566Z,64.93
2023-02-14T06:53:42.210Z,67.93
2023-02-14T06:56:09.614Z,62.83
2023-02-14T06:58:37.131Z,63.92
2023-02-14T07:01:04.781Z,64.07
2023-02-14T07:03:32.161Z,67.35
2023-02-14T07:05:59.716Z,67.15
2023-02-14T07:08:29.570Z,74.20
2023-02-14T07:10:58.741Z,87.70
2023-02-14T07:13:27.744Z,93.68
2023-02-14T07:15:55.383Z,98.70
2023-02-14T07:18:22.929Z,98.78
2023-02-14T07:20:50.997Z,96.53
2023-02-14T07:23:18.327Z,94.18
2023-02-14T07:25:45.860Z,95.78
2023-02-14T07:28:13.320Z,107.90
2023-02-14T07:30:40.815Z,104.07
2023-02-14T07:33:08.322Z,102.18
2023-02-14T07:35:35.809Z,97.53
2023-02-14T07:38:03.233Z,89.85
2023-02-14T07:40:30.556Z,92.65
2023-02-14T07:42:59.021Z,94.15
2023-02-14T07:45:38.254Z,82.53
2023-02-14T07:48:05.972Z,86.75
2023-02-14T07:50:33.465Z,94.43
2023-02-14T07:53:00.791Z,86.15
2023-02-14T07:55:30.685Z,84.40
2023-02-14T07:57:58.093Z,85.80
2023-02-14T08:00:25.830Z,82.25
2023-02-14T08:02:53.226Z,79.70
2023-02-14T08:05:20.605Z,77.72
2023-02-14T08:07:48.181Z,86.43
2023-02-14T08:10:16.125Z,88.30
2023-02-14T08:13:01.673Z,83.30
2023-02-14T08:15:53.220Z,84.97
2023-02-14T08:18:23.153Z,79.88
2023-02-14T08:20:51.131Z,78.18
2023-02-14T08:23:19.722Z,71.70
2023-02-14T08:25:51.282Z,76.93
2023-02-14T08:28:24.359Z,73.90
2023-02-14T08:30:55.614Z,76.18
2023-02-14T08:33:23.208Z,78.80
2023-02-14T08:35:52.179Z,76.55
2023-02-14T08:38:19.774Z,79.18
2023-02-14T08:40:47.400Z,71.78
2023-02-14T08:43:14.837Z,70.68
2023-02-14T08:45:42.387Z,71.10
2023-02-14T08:48:11.645Z,69.03
2023-02-14T08:50:39.675Z,65.80
2023-02-14T08:53:09.233Z,70.78
2023-02-14T08:55:36.982Z,66.45
2023-02-14T08:58:05.364Z,68.18
2023-02-14T09:00:33.381Z,70.70
2023-02-14T09:03:00.766Z,68.55
2023-02-14T09:05:28.189Z,70.53
2023-02-14T09:07:58.598Z,65.93
2023-02-14T09:10:26.730Z,64.55
2023-02-14T09:12:54.122Z,64.50
2023-02-14T09:15:21.502Z,67.45
2023-02-14T09:17:49.073Z,62.53
2023-02-14T09:20:16.635Z,62.42
2023-02-14T09:22:44.304Z,61.13
2023-02-14T09:25:12.689Z,61.33
2023-02-14T09:27:40.330Z,58.80
2023-02-14T09:30:09.442Z,57.35
2023-02-14T09:32:37.008Z,58.58
2023-02-14T09:35:23.008Z,56.85
2023-02-14T09:37:50.423Z,55.15
2023-02-14T09:40:20.131Z,59.63
2023-02-14T09:43:07.520Z,56.42
2023-02-14T09:45:35.261Z,53.67
2023-02-14T09:48:16.515Z,56.05
2023-02-14T09:50:46.189Z,56.65
2023-02-14T09:53:27.253Z,51.45
2023-02-14T09:56:27.288Z,58.33
2023-02-14T09:59:13.509Z,57.25
2023-02-14T10:01:45.175Z,58.33
2023-02-14T10:04:38.717Z,57.67
2023-02-14T10:07:10.332Z,51.95
2023-02-14T10:10:05.130Z,54.30
2023-02-14T10:12:52.177Z,53.55
2023-02-14T10:15:32.866Z,52.67
2023-02-14T10:18:05.960Z,52.40
2023-02-14T10:20:37.786Z,52.90
2023-02-14T10:23:19.882Z,55.10
2023-02-14T10:25:53.301Z,54.40
2023-02-14T10:28:25.652Z,57.60
2023-02-14T10:31:05.997Z,52.35
2023-02-14T10:33:35.986Z,48.92
2023-02-14T10:36:22.420Z,53.97
2023-02-14T10:38:59.365Z,53.33
2023-02-14T10:41:49.313Z,54.88
2023-02-14T10:44:40.808Z,66.38
2023-02-14T10:47:30.733Z,53.72
2023-02-14T10:49:58.055Z,48.92
2023-02-14T10:52:27.176Z,50.90
2023-02-14T10:54:59.964Z,50.38
2023-02-14T10:57:34.137Z,48.85
2023-02-14T11:00:07.654Z,50.67
2023-02-14T11:02:55.978Z,51.17
2023-02-14T11:05:38.936Z,49.40
2023-02-14T11:08:36.419Z,49.10
2023-02-14T11:11:34.157Z,49.83
2023-02-14T11:16:52.460Z,52.13
2023-02-14T11:19:26.448Z,51.88
2023-02-14T11:21:56.358Z,53.08
2023-02-14T11:24:37.449Z,52.80
2023-02-14T11:27:10.890Z,51.10
2023-02-14T11:29:53.947Z,51.85
2023-02-14T11:35:01.476Z,57.17
2023-02-14T11:37:30.445Z,51.40
2023-02-14T11:39:59.859Z,51.35
2023-02-14T11:43:19.945Z,54.60
2023-02-14T11:45:49.027Z,50.95
2023-02-14T11:48:39.500Z,50.25
2023-02-14T11:51:07.075Z,47.67
2023-02-14T11:53:56.015Z,50.83
2023-02-14T11:56:24.629Z,48.97
2023-02-14T11:58:58.461Z,48.90
2023-02-14T12:01:31.105Z,50.78
2023-02-14T12:04:15.992Z,50.20
2023-02-14T12:06:45.738Z,52.38
2023-02-14T12:09:26.931Z,48.15
2023-02-14T12:11:58.670Z,49.80
2023-02-14T12:14:32.880Z,52.60
2023-02-14T12:17:18.463Z,49.67
2023-02-14T12:19:56.025Z,47.70
2023-02-14T12:22:28.352Z,49.65
2023-02-14T12:25:18.941Z,48.58
2023-02-14T12:27:57.011Z,50.70
2023-02-14T12:30:25.983Z,49.20
2023-02-14T12:32:57.195Z,49.05
2023-02-14T12:36:02.240Z,49.50
2023-02-14T12:38:47.746Z,51.05
2023-02-14T12:41:49.465Z,51.58
2023-02-14T12:44:35.210Z,51.60
2023-02-14T12:47:19.265Z,48.22
2023-02-14T12:50:14.602Z,49.90
2023-02-14T12:53:20.256Z,52.35
2023-02-14T12:55:50.606Z,46.38
2023-02-14T12:58:59.557Z,53.25
2023-02-14T13:01:43.334Z,49.90
2023-02-14T13:04:36.709Z,49.75
2023-02-14T13:10:25.919Z,47.70
2023-02-14T13:13:16.771Z,48.40
2023-02-14T13:16:07.331Z,46.45
2023-02-14T13:19:04.132Z,51.00
2023-02-14T13:21:34.537Z,46.55
2023-02-14T13:24:22.507Z,49.25
2023-02-14T13:26:55.464Z,47.22
2023-02-14T13:29:25.293Z,47.58
2023-02-14T13:31:57.782Z,47.72
2023-02-14T13:34:32.710Z,46.13
2023-02-14T13:37:02.872Z,49.72
2023-02-14T13:39:45.290Z,47.67
2023-02-14T13:42:12.838Z,47.80
2023-02-14T13:44:44.378Z,49.75
2023-02-14T13:47:23.737Z,51.58
2023-02-14T13:49:58.121Z,51.67
2023-02-14T13:52:45.503Z,48.97
2023-02-14T13:55:29.419Z,50.55
2023-02-14T13:58:07.368Z,49.17
2023-02-14T14:00:47.015Z,48.60
2023-02-14T14:03:29.950Z,49.70
2023-02-14T14:06:01.163Z,46.78
2023-02-14T14:08:30.660Z,50.28
2023-02-14T14:11:11.737Z,48.83
2023-02-14T14:14:15.981Z,49.22
2023-02-14T14:22:31.853Z,48.78
2023-02-14T14:25:06.441Z,49.20
2023-02-14T14:27:43.182Z,51.25
2023-02-14T14:30:22.868Z,48.85
2023-02-14T14:32:52.101Z,51.17
2023-02-14T14:35:24.696Z,48.70
2023-02-14T14:37:54.718Z,53.42
2023-02-14T14:40:28.812Z,47.95
2023-02-14T14:43:20.515Z,50.22
2023-02-14T14:45:49.099Z,52.50
2023-02-14T14:48:26.815Z,54.35
2023-02-14T14:50:54.992Z,47.58
2023-02-14T14:53:30.512Z,51.75
2023-02-14T14:55:58.584Z,48.05
2023-02-14T14:58:40.966Z,48.85
2023-02-14T15:01:13.196Z,50.67
2023-02-14T15:03:41.097Z,51.35
2023-02-14T15:06:20.363Z,46.63
2023-02-14T15:08:48.870Z,48.65
2023-02-14T15:11:46.201Z,48.20
2023-02-14T15:14:21.249Z,52.40
2023-02-14T15:16:59.261Z,50.03
2023-02-14T15:19:51.668Z,51.15
2023-02-14T15:22:35.841Z,48.70
2023-02-14T15:25:27.931Z,52.75
2023-02-14T15:27:55.288Z,50.83
2023-02-14T15:30:33.918Z,48.53
2023-02-14T15:33:03.606Z,51.92
2023-02-14T15:35:33.749Z,52.30
2023-02-14T15:38:04.077Z,52.13
2023-02-14T15:40:34.343Z,50.63
2023-02-14T15:43:14.012Z,49.83
2023-02-14T15:45:42.754Z,52.80
2023-02-14T15:48:17.183Z,46.15
2023-02-14T15:50:52.759Z,54.13
2023-02-14T15:53:20.026Z,51.83
2023-02-14T15:55:49.751Z,48.95
2023-02-14T15:58:26.796Z,48.08
2023-02-14T16:00:54.533Z,50.40
2023-02-14T16:03:24.593Z,51.13
2023-02-14T16:05:55.366Z,49.28
2023-02-14T16:08:31.420Z,48.30
2023-02-14T16:11:26.396Z,48.45
2023-02-14T16:13:54.244Z,51.33
2023-02-14T16:16:21.833Z,53.47
2023-02-14T16:18:55.962Z,57.15
2023-02-14T16:21:55.555Z,54.72
2023-02-14T16:24:24.941Z,54.88
2023-02-14T16:26:52.981Z,54.97
2023-02-14T16:29:23.319Z,50.25
2023-02-14T16:32:16.146Z,56.67
2023-02-14T16:34:53.492Z,52.10
2023-02-14T16:37:23.352Z,53.17
2023-02-14T16:39:53.869Z,55.28
2023-02-14T16:42:21.391Z,52.83
2023-02-14T16:44:49.256Z,54.00
2023-02-14T16:47:18.185Z,56.83
2023-02-14T16:49:45.880Z,52.95
2023-02-14T16:52:17.841Z,55.78
2023-02-14T16:54:45.616Z,55.30
2023-02-14T16:57:38.102Z,59.38
2023-02-14T17:00:10.270Z,56.60
2023-02-14T17:02:38.124Z,59.17
2023-02-14T17:05:05.902Z,58.90
2023-02-14T17:07:34.817Z,57.50
2023-02-14T17:10:20.652Z,58.17
2023-02-14T17:12:54.459Z,60.80
2023-02-14T17:15:27.740Z,61.83
2023-02-14T17:18:25.962Z,61.22
2023-02-14T17:21:03.968Z,66.65
2023-02-14T17:23:40.664Z,63.10
2023-02-14T17:26:26.699Z,58.58
2023-02-14T17:28:58.712Z,61.05
2023-02-14T17:31:28.752Z,60.50
2023-02-14T17:34:02.256Z,61.90
2023-02-14T17:36:40.719Z,67.07
2023-02-14T17:39:16.895Z,63.15
2023-02-14T17:41:47.026Z,68.85
2023-02-14T17:44:17.802Z,67.25
2023-02-14T17:46:46.542Z,66.07
2023-02-14T17:49:27.814Z,67.53
2023-02-14T17:52:01.216Z,67.95
2023-02-14T17:54:31.195Z,66.60
2023-02-14T17:57:15.899Z,66.55
2023-02-14T17:59:47.238Z,67.40
2023-02-14T18:02:16.760Z,74.40
2023-02-14T18:04:44.682Z,71.53
2023-02-14T18:07:14.955Z,70.65
2023-02-14T18:09:47.028Z,70.20
2023-02-14T18:12:34.789Z,75.33
2023-02-14T18:15:04.175Z,67.10
2023-02-14T18:17:40.289Z,70.18
2023-02-14T18:25:57.065Z,75.25
2023-02-14T18:31:15.790Z,75.22
2023-02-14T18:34:03.120Z,69.65
2023-02-14T18:36:31.807Z,67.30
2023-02-14T18:38:59.763Z,69.53
2023-02-14T18:41:31.064Z,70.28
2023-02-14T18:44:00.145Z,73.63
2023-02-14T18:46:34.472Z,73.95
2023-02-14T18:49:04.831Z,72.50
2023-02-14T18:54:28.489Z,80.05
2023-02-14T18:56:56.094Z,67.93
2023-02-14T19:02:14.128Z,75.85
2023-02-14T19:04:41.667Z,71.05
2023-02-14T19:07:09.495Z,73.50
2023-02-14T19:09:39.828Z,73.57
2023-02-14T19:12:08.041Z,72.50
2023-02-14T19:14:35.577Z,73.80
2023-02-14T19:17:04.397Z,68.07
2023-02-14T19:19:35.313Z,75.30
2023-02-14T19:22:02.730Z,75.60
2023-02-14T19:24:30.118Z,71.60
2023-02-14T19:26:57.814Z,71.70
2023-02-14T19:29:26.871Z,72.28
2023-02-14T19:31:55.284Z,76.65
2023-02-14T19:34:28.276Z,72.40
2023-02-14T19:36:59.135Z,77.50
2023-02-14T19:39:29.702Z,78.32
2023-02-14T19:41:57.628Z,79.07
2023-02-14T19:44:29.282Z,74.15
2023-02-14T19:47:00.000Z,74.32
2023-02-14T19:49:28.607Z,79.20
2023-02-14T19:51:56.546Z,75.43
2023-02-14T19:54:25.626Z,74.45
2023-02-14T19:56:55.427Z,74.75
2023-02-14T19:59:23.222Z,82.88
2023-02-14T20:01:58.301Z,75.85
2023-02-14T20:04:28.161Z,71.05
2023-02-14T20:06:56.044Z,75.28
2023-02-14T20:09:24.107Z,76.78
2023-02-14T20:11:54.444Z,76.63
2023-02-14T20:14:36.055Z,78.32
2023-02-14T20:17:08.298Z,82.68
2023-02-14T20:19:37.166Z,79.47
2023-02-14T20:22:04.639Z,84.28
2023-02-14T20:24:35.092Z,83.13
2023-02-14T20:27:02.970Z,80.97
2023-02-14T20:29:31.877Z,77.45
2023-02-14T20:32:01.630Z,85.47
2023-02-14T20:34:30.563Z,79.72
2023-02-14T20:36:59.366Z,75.65
2023-02-14T20:39:32.400Z,81.72
2023-02-14T20:42:00.273Z,81.93
2023-02-14T20:44:28.143Z,85.45
2023-02-14T20:46:56.798Z,80.78
2023-02-14T20:49:25.625Z,84.13
2023-02-14T20:51:53.133Z,97.47
2023-02-14T20:54:23.288Z,91.05
2023-02-14T20:56:51.239Z,97.75
2023-02-14T20:59:28.968Z,90.47
2023-02-14T21:01:58.066Z,99.78
2023-02-14T21:04:26.435Z,88.43
2023-02-14T21:06:53.962Z,88.53
2023-02-14T21:09:21.445Z,93.13
2023-02-14T21:11:50.284Z,89.78
2023-02-14T21:14:17.642Z,87.32
2023-02-14T21:16:45.076Z,90.53
2023-02-14T21:19:13.598Z,83.32
2023-02-14T21:21:42.234Z,93.65
2023-02-14T21:24:14.732Z,90.90
2023-02-14T21:26:42.385Z,93.40
2023-02-14T21:29:10.489Z,95.50
2023-02-14T21:31:38.645Z,88.93
2023-02-14T21:34:06.481Z,87.30
2023-02-14T21:36:37.884Z,94.97
2023-02-14T21:39:06.544Z,90.63
2023-02-14T21:41:34.651Z,89.55
2023-02-14T21:44:02.520Z,90.80
2023-02-14T21:46:36.754Z,85.45
2023-02-14T21:49:24.720Z,91.68
2023-02-14T21:51:52.129Z,91.95
2023-02-14T21:54:19.553Z,86.00
2023-02-14T21:56:46.932Z,92.70
2023-02-14T21:59:14.740Z,97.75
2023-02-14T22:01:43.083Z,95.85
2023-02-14T22:04:12.238Z,91.53
2023-02-14T22:06:42.908Z,90.50
2023-02-14T22:09:13.236Z,90.95
2023-02-14T22:11:40.855Z,92.75
2023-02-14T22:14:08.351Z,80.82
2023-02-14T22:16:36.935Z,97.88
2023-02-14T22:19:08.499Z,91.55
2023-02-14T22:21:36.284Z,91.22
2023-02-14T22:24:03.886Z,89.47
2023-02-14T22:26:40.793Z,86.28
2023-02-14T22:29:10.648Z,80.13
2023-02-14T22:31:42.934Z,73.32
2023-02-14T22:34:12.445Z,77.18
2023-02-14T22:36:39.834Z,82.72
2023-02-14T22:39:07.443Z,79.93
2023-02-14T22:41:38.013Z,76.80
2023-02-14T22:44:05.848Z,80.78
2023-02-14T22:46:33.717Z,84.43
2023-02-14T22:49:01.141Z,82.28
2023-02-14T22:51:31.129Z,79.75
2023-02-14T22:54:01.160Z,86.72
2023-02-14T22:56:34.348Z,92.43
2023-02-14T22:59:06.815Z,95.40
2023-02-14T23:01:41.241Z,93.80
2023-02-14T23:04:11.875Z,85.95
2023-02-14T23:06:39.927Z,86.07
2023-02-14T23:09:09.661Z,86.95
2023-02-14T23:11:38.984Z,86.95
2023-02-14T23:14:25.805Z,87.35
2023-02-14T23:17:12.162Z,85.95
2023-02-14T23:19:57.950Z,87.25
2023-02-14T23:22:30.704Z,89.38
2023-02-14T23:25:00.166Z,96.18
2023-02-14T23:27:33.066Z,86.68
2023-02-14T23:32:28.189Z,76.20
2023-02-14T23:34:55.520Z,74.10
2023-02-14T23:37:22.973Z,70.80
2023-02-14T23:39:51.019Z,65.30
2023-02-14T23:42:18.768Z,62.08
2023-02-14T23:44:47.230Z,61.03
2023-02-14T23:47:15.943Z,60.78
2023-02-14T23:49:43.792Z,59.97
2023-02-14T23:52:12.936Z,62.70
2023-02-14T23:54:40.788Z,60.13
2023-02-14T23:57:08.549Z,58.08
2023-02-14T23:59:35.916Z,56.88
